KENW/ENW METAR and TAF weather

Enter ICAO airport designator
Station Type Date Time Source
KENW METAR 2021/10/22 18:53 UTC NOAA

KENW 221853Z 30007KT 240V330 10SM CLR 12/02 A3003 RMK AO2 SLP174 T01170017


Station Type Date Time Source
KENW Decoded METAR 2021/10/22 18:53 UTC NOAA

KENOSHA REGIONAL AIRPORT, WI, United States (KENW) 42-36N 087-56W 219M
Oct 22, 2021 - 02:53 PM EDT / 2021.10.22 1853 UTC
Wind: from the WNW (300 degrees) at 8 MPH (7 KT) (direction variable):0
Visibility: 10 mile(s):0
Sky conditions: clear
Temperature: 53.1 F (11.7 C)
Dew Point: 35.1 F (1.7 C)
Relative Humidity: 50%
Pressure (altimeter): 30.03 in. Hg (1016 hPa)
ob: KENW 221853Z 30007KT 240V330 10SM CLR 12/02 A3003 RMK AO2 SLP174 T01170017
cycle: 19

Station Type Date Time Source
KENW TAF 2021/10/22 19:06 UTC NOAA

TAF
AMD KENW 221905Z 2219/2318 30007KT P6SM SCT035 BKN150
TEMPO 2219/2222 BKN035
FM230000 30004KT P6SM BKN120
FM230700 31003KT P6SM SCT150

Example: see airport list